Time;durP1;ratioP1;P1;durP2;ratioP2;P2;SDS_P1;SDS_P2;PMS_P1;PMS_P2;Temp;Humidity;BMP_temperature;BMP_pressure;BME280_temperature;BME280_humidity;BME280_pressure;Samples;Min_cycle;Max_cycle;Signal;HPM_P1;HPM_P2
2022/01/15 00:00:21;;;;;;;32.53;17.33;;;2.60;99.90;;;;;;5093999;28;20197;-76
2022/01/15 00:02:47;;;;;;;32.57;17.47;;;2.70;99.90;;;;;;5093402;28;20169;-76
2022/01/15 00:05:13;;;;;;;30.70;16.20;;;2.60;99.90;;;;;;5092617;28;20184;-76
2022/01/15 00:07:39;;;;;;;28.43;15.70;;;2.60;99.90;;;;;;5092522;28;20177;-76
2022/01/15 00:10:06;;;;;;;30.03;16.07;;;2.50;99.90;;;;;;5093283;28;20201;-76
2022/01/15 00:12:38;;;;;;;31.77;16.73;;;2.50;99.90;;;;;;5092374;28;20204;-76
2022/01/15 00:15:05;;;;;;;35.60;18.70;;;2.60;99.90;;;;;;5092467;28;20706;-76
2022/01/15 00:17:44;;;;;;;32.20;18.63;;;2.80;99.90;;;;;;5092441;28;20201;-76
2022/01/15 00:20:10;;;;;;;30.03;17.03;;;2.80;99.90;;;;;;5092939;28;20257;-76
2022/01/15 00:22:35;;;;;;;34.63;18.60;;;2.60;99.90;;;;;;5092580;28;20180;-76
2022/01/15 00:25:01;;;;;;;32.67;18.57;;;2.50;99.90;;;;;;5092629;28;20272;-76
2022/01/15 00:27:27;;;;;;;40.57;20.70;;;2.50;99.90;;;;;;5092968;28;20259;-76
2022/01/15 00:29:52;;;;;;;30.33;16.90;;;2.60;99.90;;;;;;5092286;28;20682;-76
2022/01/15 00:32:18;;;;;;;29.67;15.97;;;2.70;99.90;;;;;;5093095;28;20184;-76
2022/01/15 00:34:43;;;;;;;27.80;15.53;;;2.60;99.90;;;;;;5093530;28;20177;-76
2022/01/15 00:37:09;;;;;;;28.47;16.43;;;2.60;99.90;;;;;;5092198;28;20212;-76
2022/01/15 00:39:35;;;;;;;26.07;14.47;;;2.50;99.90;;;;;;5092469;28;20200;-76
2022/01/15 00:42:00;;;;;;;27.17;14.47;;;2.60;99.90;;;;;;5092516;28;20184;-76
2022/01/15 00:44:26;;;;;;;29.67;14.77;;;2.70;99.90;;;;;;5093632;28;20255;-76
2022/01/15 00:46:51;;;;;;;27.27;14.70;;;2.60;99.90;;;;;;5092460;28;20185;-76
2022/01/15 00:49:17;;;;;;;26.50;14.73;;;2.60;99.90;;;;;;5096236;28;20176;-76
2022/01/15 00:51:42;;;;;;;26.23;14.77;;;2.60;99.90;;;;;;5097041;28;20180;-76
2022/01/15 00:54:08;;;;;;;30.50;14.77;;;2.70;99.90;;;;;;5096101;28;20180;-76
2022/01/15 00:56:34;;;;;;;30.50;15.47;;;2.80;99.90;;;;;;5096005;28;20219;-76
2022/01/15 00:58:59;;;;;;;32.30;16.43;;;2.60;99.90;;;;;;5096166;28;20271;-76
2022/01/15 01:01:25;;;;;;;33.53;16.27;;;2.60;99.90;;;;;;5097127;28;20239;-76
2022/01/15 01:03:51;;;;;;;36.47;18.27;;;2.70;99.90;;;;;;5095952;28;20179;-76
2022/01/15 01:06:17;;;;;;;29.87;16.20;;;2.70;99.90;;;;;;5096159;28;20267;-76
2022/01/15 01:08:42;;;;;;;30.27;15.23;;;2.60;99.90;;;;;;5096194;28;20176;-76
2022/01/15 01:11:13;;;;;;;26.30;13.57;;;2.60;99.90;;;;;;5096120;28;20200;-76
2022/01/15 01:20:04;;;;;;;25.33;13.03;;;2.70;99.90;;;;;;5095768;28;20187;-76
2022/01/15 01:24:24;;;;;;;24.87;13.97;;;2.80;99.90;;;;;;5097321;28;20256;-76
2022/01/15 01:34:25;;;;;;;27.00;14.47;;;2.90;99.90;;;;;;5096703;28;20156;-76
2022/01/15 01:37:08;;;;;;;26.00;14.47;;;3.00;99.90;;;;;;5095220;28;20270;-76
2022/01/15 01:40:06;;;;;;;27.83;14.53;;;2.90;99.90;;;;;;5095278;28;20173;-76
2022/01/15 01:48:10;;;;;;;27.90;15.07;;;2.80;99.90;;;;;;5096632;28;20164;-76
2022/01/15 01:50:35;;;;;;;26.97;14.43;;;2.80;99.90;;;;;;5096244;28;20184;-76
2022/01/15 01:53:01;;;;;;;26.17;14.70;;;2.90;99.90;;;;;;5094942;28;20177;-76
2022/01/15 01:55:27;;;;;;;29.57;15.63;;;3.00;99.90;;;;;;5095014;28;20268;-76
2022/01/15 01:57:56;;;;;;;30.37;14.90;;;2.80;99.90;;;;;;5095173;28;20258;-76
2022/01/15 02:00:23;;;;;;;33.57;15.13;;;2.70;99.90;;;;;;5094912;28;20201;-76
2022/01/15 02:02:51;;;;;;;27.20;15.30;;;2.70;99.90;;;;;;5094808;28;20192;-76
2022/01/15 02:05:18;;;;;;;27.40;14.80;;;2.80;99.90;;;;;;5096060;28;20664;-76
2022/01/15 02:07:44;;;;;;;28.60;15.10;;;2.90;99.90;;;;;;5095948;28;20177;-76
2022/01/15 02:10:16;;;;;;;29.30;15.33;;;2.90;99.90;;;;;;5094902;28;20226;-76
2022/01/15 02:12:43;;;;;;;28.03;14.83;;;2.80;99.90;;;;;;5094672;28;20208;-76
2022/01/15 02:15:13;;;;;;;30.40;15.90;;;2.80;99.90;;;;;;5094910;28;20181;-76
2022/01/15 02:17:39;;;;;;;30.80;15.60;;;2.80;99.90;;;;;;5094372;28;20203;-76
2022/01/15 02:25:42;;;;;;;35.37;17.53;;;3.00;99.90;;;;;;5096342;28;20179;-76
2022/01/15 02:28:09;;;;;;;34.77;16.67;;;2.80;99.90;;;;;;5095576;28;20242;-76
2022/01/15 02:30:34;;;;;;;35.60;17.37;;;2.70;99.90;;;;;;5094238;28;20303;-76
2022/01/15 02:33:00;;;;;;;33.40;17.27;;;2.60;99.90;;;;;;5095155;28;20223;-76
2022/01/15 02:35:25;;;;;;;32.93;16.33;;;2.70;99.90;;;;;;5094143;28;20263;-76
2022/01/15 02:37:51;;;;;;;36.00;17.13;;;2.50;99.90;;;;;;5094279;28;20200;-76
2022/01/15 02:40:17;;;;;;;37.50;17.40;;;2.50;99.90;;;;;;5094003;28;20226;-76
2022/01/15 02:42:42;;;;;;;37.03;17.13;;;2.60;99.90;;;;;;5095499;28;20181;-76
2022/01/15 02:45:08;;;;;;;32.93;16.53;;;2.70;99.90;;;;;;5094046;28;20173;-76
2022/01/15 02:50:20;;;;;;;30.23;16.30;;;2.60;99.90;;;;;;5095618;28;20204;-76
2022/01/15 02:52:46;;;;;;;30.97;15.43;;;2.70;99.90;;;;;;5094643;28;20173;-76
2022/01/15 02:55:11;;;;;;;31.20;15.33;;;2.80;99.90;;;;;;5093795;28;20177;-76
2022/01/15 02:57:37;;;;;;;30.53;15.93;;;2.80;99.90;;;;;;5093674;28;20204;-76
2022/01/15 03:00:04;;;;;;;28.80;15.67;;;2.90;99.90;;;;;;5095455;28;20656;-76
2022/01/15 03:02:31;;;;;;;32.17;16.60;;;2.90;99.90;;;;;;5093760;28;20179;-76
2022/01/15 03:04:57;;;;;;;34.50;16.17;;;2.90;99.90;;;;;;5093631;28;20245;-76
2022/01/15 03:07:23;;;;;;;32.10;15.70;;;2.70;99.90;;;;;;5094814;28;20200;-76
2022/01/15 03:09:49;;;;;;;31.47;16.53;;;2.80;99.90;;;;;;5094267;28;20197;-76
2022/01/15 03:12:15;;;;;;;28.03;15.47;;;2.80;99.90;;;;;;5094206;28;20183;-76
2022/01/15 03:14:42;;;;;;;33.23;16.63;;;2.90;99.90;;;;;;5093520;28;20183;-76
2022/01/15 03:17:07;;;;;;;31.73;15.80;;;2.80;99.90;;;;;;5093591;28;20280;-76
2022/01/15 03:19:33;;;;;;;31.50;15.90;;;2.70;99.90;;;;;;5094855;28;20364;-76
2022/01/15 03:21:59;;;;;;;32.30;16.83;;;2.70;99.90;;;;;;5093295;28;20267;-76
2022/01/15 03:24:24;;;;;;;34.70;16.57;;;2.80;99.90;;;;;;5093156;28;20181;-76
2022/01/15 03:26:50;;;;;;;31.20;15.70;;;2.80;99.90;;;;;;5093979;28;20198;-76
2022/01/15 03:29:15;;;;;;;30.37;16.07;;;2.80;99.90;;;;;;5094958;28;20221;-76
2022/01/15 03:31:42;;;;;;;36.47;17.73;;;2.90;99.90;;;;;;5094223;28;20211;-76
2022/01/15 03:34:07;;;;;;;31.60;16.00;;;2.90;99.90;;;;;;5094312;28;20169;-76
2022/01/15 03:36:33;;;;;;;33.67;17.10;;;2.80;99.90;;;;;;5092922;28;20201;-76
2022/01/15 03:38:58;;;;;;;33.47;16.27;;;2.70;99.90;;;;;;5093889;28;20187;-76
2022/01/15 03:41:24;;;;;;;33.03;16.43;;;2.60;99.90;;;;;;5092831;28;20544;-76
2022/01/15 03:43:50;;;;;;;33.10;15.93;;;2.60;99.90;;;;;;5092947;28;20238;-76
2022/01/15 03:46:15;;;;;;;33.23;16.00;;;2.50;99.90;;;;;;5092949;28;20222;-76
2022/01/15 03:48:41;;;;;;;34.83;17.33;;;2.50;99.90;;;;;;5092892;28;20183;-76
2022/01/15 03:51:06;;;;;;;30.60;16.93;;;2.60;99.90;;;;;;5092769;28;20197;-76
2022/01/15 03:53:32;;;;;;;31.83;16.60;;;2.60;99.90;;;;;;5092868;28;20169;-76
2022/01/15 03:55:58;;;;;;;33.37;16.10;;;2.60;99.90;;;;;;5092711;28;20180;-76
2022/01/15 03:58:23;;;;;;;31.20;17.10;;;2.60;99.90;;;;;;5092757;28;20181;-76
2022/01/15 04:00:49;;;;;;;31.20;17.03;;;2.80;99.90;;;;;;5093095;28;20532;-76
2022/01/15 04:03:16;;;;;;;30.50;16.00;;;2.80;99.90;;;;;;5092560;28;20173;-76
2022/01/15 04:05:43;;;;;;;33.00;17.50;;;2.80;99.90;;;;;;5092814;28;20639;-76
2022/01/15 04:08:08;;;;;;;28.13;16.03;;;2.80;99.90;;;;;;5093701;28;20176;-76
2022/01/15 04:10:34;;;;;;;28.80;15.63;;;2.80;99.90;;;;;;5092696;28;20203;-76
2022/01/15 04:12:59;;;;;;;27.13;16.10;;;2.90;99.90;;;;;;5092557;28;20711;-76
2022/01/15 04:15:25;;;;;;;25.60;15.03;;;3.00;99.90;;;;;;5092417;28;20187;-76
2022/01/15 04:17:51;;;;;;;30.57;15.60;;;3.10;99.90;;;;;;5092376;28;20204;-76
2022/01/15 04:20:22;;;;;;;25.93;15.07;;;3.10;99.90;;;;;;5093577;28;20213;-76
2022/01/15 04:22:48;;;;;;;27.83;15.40;;;3.10;99.90;;;;;;5093641;28;20227;-76
2022/01/15 04:25:14;;;;;;;28.77;15.33;;;3.00;99.90;;;;;;5092351;28;20180;-76
2022/01/15 04:27:41;;;;;;;29.23;15.40;;;3.00;99.90;;;;;;5093717;28;20276;-76
2022/01/15 04:30:08;;;;;;;30.37;15.73;;;3.00;99.90;;;;;;5093879;28;20208;-76
2022/01/15 04:32:33;;;;;;;25.07;13.93;;;3.10;99.90;;;;;;5092564;28;20181;-76
2022/01/15 04:34:59;;;;;;;26.37;14.27;;;3.10;99.90;;;;;;5093407;28;20172;-76
2022/01/15 04:37:34;;;;;;;26.57;14.37;;;3.20;99.90;;;;;;5092570;28;20204;-76
2022/01/15 04:40:00;;;;;;;28.20;15.30;;;3.10;99.90;;;;;;5093435;28;20185;-76
2022/01/15 04:42:26;;;;;;;29.57;15.23;;;3.00;99.90;;;;;;5092137;28;20222;-76
2022/01/15 04:44:52;;;;;;;28.43;15.43;;;3.10;99.90;;;;;;5092202;28;20173;-76
2022/01/15 04:47:17;;;;;;;24.57;14.33;;;3.00;99.90;;;;;;5092823;28;20181;-76
2022/01/15 04:49:43;;;;;;;26.63;14.80;;;3.00;99.90;;;;;;5093579;28;20291;-76
2022/01/15 04:52:09;;;;;;;34.57;17.87;;;2.90;99.90;;;;;;5092236;28;20176;-76
2022/01/15 04:54:36;;;;;;;33.80;18.60;;;2.80;99.90;;;;;;5092204;28;20188;-76
2022/01/15 04:57:02;;;;;;;30.13;17.57;;;2.90;99.90;;;;;;5093215;28;20211;-76
2022/01/15 04:59:27;;;;;;;31.17;17.23;;;2.80;99.90;;;;;;5091975;28;20181;-76
2022/01/15 05:01:53;;;;;;;30.50;17.43;;;2.80;99.90;;;;;;5092105;28;20176;-76
2022/01/15 05:04:18;;;;;;;35.93;18.87;;;2.90;99.90;;;;;;5093470;28;20173;-76
2022/01/15 05:06:44;;;;;;;33.27;18.60;;;2.90;99.90;;;;;;5093207;28;20192;-76
2022/01/15 05:09:10;;;;;;;34.43;19.20;;;2.90;99.90;;;;;;5093363;28;20565;-76
2022/01/15 05:11:48;;;;;;;32.67;19.97;;;2.80;99.90;;;;;;5092676;28;20208;-76
2022/01/15 05:14:16;;;;;;;36.37;20.97;;;2.90;99.90;;;;;;5092719;28;20242;-76
2022/01/15 05:16:42;;;;;;;34.00;18.63;;;3.00;99.90;;;;;;5092621;28;20223;-76
2022/01/15 05:19:07;;;;;;;37.60;21.33;;;2.90;99.90;;;;;;5093077;28;20173;-76
2022/01/15 05:21:33;;;;;;;34.20;19.30;;;2.90;99.90;;;;;;5092144;28;20220;-76
2022/01/15 05:23:59;;;;;;;34.47;19.63;;;3.00;99.90;;;;;;5092118;28;20647;-76
2022/01/15 05:26:24;;;;;;;32.73;17.53;;;2.80;99.90;;;;;;5091813;28;20184;-76
2022/01/15 05:28:50;;;;;;;30.53;17.23;;;2.80;99.90;;;;;;5092095;28;20196;-76
2022/01/15 05:31:16;;;;;;;29.90;17.77;;;2.90;99.90;;;;;;5092068;28;20201;-76
2022/01/15 05:33:41;;;;;;;34.50;17.70;;;3.00;99.90;;;;;;5093621;28;20237;-76
2022/01/15 05:36:07;;;;;;;32.13;16.97;;;3.10;99.90;;;;;;5095827;28;20220;-76
2022/01/15 05:38:32;;;;;;;28.83;16.17;;;3.10;99.90;;;;;;5095344;28;20169;-76
2022/01/15 05:40:58;;;;;;;30.13;16.50;;;3.10;99.90;;;;;;5095272;28;20196;-76
2022/01/15 05:43:23;;;;;;;26.07;15.50;;;3.10;99.90;;;;;;5095604;28;20177;-76
2022/01/15 05:45:49;;;;;;;28.57;16.30;;;3.20;99.90;;;;;;5097299;28;20268;-76
2022/01/15 05:48:15;;;;;;;30.03;16.83;;;3.10;99.90;;;;;;5095638;28;20180;-76
2022/01/15 05:50:40;;;;;;;25.63;15.47;;;3.10;99.90;;;;;;5096690;28;20203;-76
2022/01/15 05:53:06;;;;;;;27.53;16.63;;;3.10;99.90;;;;;;5095401;28;20172;-76
2022/01/15 05:55:32;;;;;;;27.80;15.73;;;3.10;99.90;;;;;;5095212;28;20173;-76
2022/01/15 05:57:57;;;;;;;29.33;16.13;;;3.00;99.90;;;;;;5096329;28;20656;-76
2022/01/15 06:00:23;;;;;;;28.37;16.57;;;3.10;99.90;;;;;;5095046;28;20197;-76
2022/01/15 06:02:48;;;;;;;28.43;16.53;;;3.00;99.90;;;;;;5094968;28;20177;-76
2022/01/15 06:05:14;;;;;;;32.07;16.97;;;3.00;99.90;;;;;;5094935;28;20582;-76
2022/01/15 06:07:39;;;;;;;31.67;17.13;;;3.10;99.90;;;;;;5095236;28;20202;-76
2022/01/15 06:10:05;;;;;;;28.43;16.77;;;2.90;99.90;;;;;;5094670;28;20243;-76
2022/01/15 06:12:33;;;;;;;31.30;16.73;;;3.00;99.90;;;;;;5094961;28;20647;-76
2022/01/15 06:14:59;;;;;;;31.10;17.37;;;2.90;99.90;;;;;;5094645;28;20180;-76
2022/01/15 06:17:25;;;;;;;26.97;15.87;;;2.90;99.90;;;;;;5095827;28;20207;-76
2022/01/15 06:19:51;;;;;;;29.00;15.87;;;3.00;99.90;;;;;;5094467;28;20321;-76
2022/01/15 06:22:17;;;;;;;29.57;16.90;;;3.00;99.90;;;;;;5094618;28;20177;-76
2022/01/15 06:24:42;;;;;;;26.07;15.67;;;3.00;99.90;;;;;;5094984;28;20181;-76
2022/01/15 06:27:11;;;;;;;25.13;14.63;;;3.10;99.90;;;;;;5094537;28;20207;-76
2022/01/15 06:29:37;;;;;;;27.40;14.97;;;3.20;99.90;;;;;;5095499;28;20214;-76
2022/01/15 06:32:03;;;;;;;24.63;15.17;;;3.10;99.90;;;;;;5094620;28;20172;-76
2022/01/15 06:34:29;;;;;;;25.60;14.70;;;3.10;99.90;;;;;;5096099;28;20200;-76
2022/01/15 06:36:55;;;;;;;25.23;14.73;;;3.00;99.90;;;;;;5094159;28;20233;-76
2022/01/15 06:39:20;;;;;;;24.27;14.97;;;3.00;99.90;;;;;;5094399;28;20181;-76
2022/01/15 06:41:46;;;;;;;26.57;14.70;;;3.10;99.90;;;;;;5095382;28;20180;-76
2022/01/15 06:44:11;;;;;;;25.73;14.87;;;3.20;99.90;;;;;;5094334;28;20173;-76
2022/01/15 06:46:37;;;;;;;25.20;15.20;;;3.10;99.90;;;;;;5094103;28;20195;-76
2022/01/15 06:49:02;;;;;;;24.07;13.67;;;3.20;99.90;;;;;;5094640;28;20181;-76
2022/01/15 06:51:28;;;;;;;22.07;14.03;;;3.20;99.90;;;;;;5094019;28;20197;-76
2022/01/15 06:53:53;;;;;;;28.40;15.13;;;3.20;99.90;;;;;;5093901;28;20600;-76
2022/01/15 06:56:19;;;;;;;25.30;14.77;;;3.10;99.90;;;;;;5093754;28;20172;-76
2022/01/15 06:58:46;;;;;;;25.43;14.27;;;3.00;99.90;;;;;;5093667;28;20222;-76
2022/01/15 07:02:07;;;;;;;27.30;14.07;;;2.90;99.90;;;;;;5093681;28;20205;-77
2022/01/15 07:04:32;;;;;;;24.27;13.27;;;3.00;99.90;;;;;;5094041;28;20173;-76
2022/01/15 07:06:58;;;;;;;24.03;13.97;;;3.00;99.90;;;;;;5094771;28;20173;-77
2022/01/15 07:09:23;;;;;;;24.10;14.20;;;3.00;99.90;;;;;;5093480;28;20176;-76
2022/01/15 07:11:49;;;;;;;24.93;13.97;;;3.00;99.90;;;;;;5093632;28;20187;-77
2022/01/15 07:14:15;;;;;;;24.00;13.77;;;2.90;99.90;;;;;;5094993;28;20201;-77
2022/01/15 07:16:40;;;;;;;21.27;12.60;;;2.80;99.90;;;;;;5093736;28;20204;-76
2022/01/15 07:19:06;;;;;;;24.40;14.37;;;2.80;99.90;;;;;;5093364;28;20180;-76
2022/01/15 07:21:31;;;;;;;24.73;14.20;;;2.80;99.90;;;;;;5093638;28;20196;-76
2022/01/15 07:23:57;;;;;;;22.77;12.63;;;2.80;99.90;;;;;;5094130;28;20177;-76
2022/01/15 07:26:23;;;;;;;24.83;14.13;;;2.90;99.90;;;;;;5093384;28;20771;-77
2022/01/15 07:28:48;;;;;;;22.90;14.03;;;2.80;99.90;;;;;;5093322;28;20670;-76
2022/01/15 07:31:14;;;;;;;20.73;13.60;;;2.80;99.90;;;;;;5093124;28;20201;-77
2022/01/15 07:33:39;;;;;;;20.83;13.10;;;2.80;99.90;;;;;;5093134;28;20173;-76
2022/01/15 07:36:05;;;;;;;22.63;13.23;;;2.80;99.90;;;;;;5093873;28;20169;-76
2022/01/15 07:38:31;;;;;;;24.07;12.97;;;2.80;99.90;;;;;;5092931;28;20208;-76
2022/01/15 07:40:58;;;;;;;18.83;12.60;;;3.00;99.90;;;;;;5094139;28;20189;-76
2022/01/15 07:43:24;;;;;;;22.43;12.97;;;3.00;99.90;;;;;;5094429;28;20169;-76
2022/01/15 07:45:50;;;;;;;22.80;13.47;;;3.00;99.90;;;;;;5094061;28;20169;-76
2022/01/15 07:48:16;;;;;;;20.17;12.50;;;3.00;99.90;;;;;;5092886;28;20183;-76
2022/01/15 07:50:42;;;;;;;24.77;12.63;;;3.10;99.90;;;;;;5093017;28;20201;-76
2022/01/15 07:53:07;;;;;;;22.17;13.77;;;3.20;99.90;;;;;;5093305;28;20173;-77
2022/01/15 07:55:33;;;;;;;22.50;12.73;;;3.10;99.90;;;;;;5092775;28;20234;-77
2022/01/15 07:57:59;;;;;;;30.40;18.93;;;3.20;99.90;;;;;;5092248;28;20200;-77
2022/01/15 08:00:37;;;;;;;26.30;16.10;;;3.20;99.90;;;;;;5093942;28;20201;-76
2022/01/15 08:03:02;;;;;;;26.73;14.47;;;3.30;99.90;;;;;;5093813;28;20156;-76
2022/01/15 08:05:28;;;;;;;55.40;36.63;;;3.40;99.90;;;;;;5092916;28;20229;-76
2022/01/15 08:07:54;;;;;;;32.47;20.80;;;3.30;99.90;;;;;;5092499;28;20188;-76
2022/01/15 08:10:19;;;;;;;28.37;19.17;;;3.20;99.90;;;;;;5092697;28;20277;-76
2022/01/15 08:12:49;;;;;;;24.03;14.90;;;3.30;99.90;;;;;;5092496;28;20168;-76
2022/01/15 08:15:16;;;;;;;22.53;14.13;;;3.30;99.90;;;;;;5092407;28;20215;-76
2022/01/15 08:17:42;;;;;;;22.67;14.00;;;3.20;99.90;;;;;;5093181;28;20287;-76
2022/01/15 08:20:08;;;;;;;22.80;14.53;;;3.20;99.90;;;;;;5092406;28;20220;-76
2022/01/15 08:22:34;;;;;;;29.27;16.73;;;3.30;99.90;;;;;;5092988;28;20176;-77
2022/01/15 08:24:59;;;;;;;28.10;16.60;;;3.30;99.90;;;;;;5092338;28;20256;-76
2022/01/15 08:27:25;;;;;;;26.83;15.50;;;3.20;99.90;;;;;;5093729;28;20169;-76
2022/01/15 08:29:51;;;;;;;23.57;15.13;;;3.20;99.90;;;;;;5093156;28;20209;-76
2022/01/15 08:32:16;;;;;;;22.43;14.63;;;3.30;99.90;;;;;;5092127;28;20177;-76
2022/01/15 08:34:43;;;;;;;26.63;16.50;;;3.10;99.90;;;;;;5092774;28;20590;-76
2022/01/15 08:37:09;;;;;;;24.20;15.83;;;3.20;99.90;;;;;;5093377;28;20316;-76
2022/01/15 08:39:36;;;;;;;28.20;16.67;;;3.40;99.90;;;;;;5092727;28;20194;-77
2022/01/15 08:42:07;;;;;;;26.37;15.57;;;3.40;99.90;;;;;;5092149;28;20255;-77
2022/01/15 08:44:33;;;;;;;19.47;12.33;;;3.40;99.90;;;;;;5093428;28;20169;-78
2022/01/15 08:47:01;;;;;;;22.77;13.20;;;3.30;99.90;;;;;;5092185;28;20180;-77
2022/01/15 08:49:27;;;;;;;19.93;12.67;;;3.20;99.90;;;;;;5092175;28;20714;-77
2022/01/15 08:51:52;;;;;;;21.97;13.70;;;3.30;99.90;;;;;;5093324;28;20212;-77
2022/01/15 08:54:18;;;;;;;20.57;12.57;;;3.40;99.90;;;;;;5093590;28;20173;-77
2022/01/15 08:56:58;;;;;;;25.53;16.27;;;3.50;99.90;;;;;;5092619;28;20201;-77
2022/01/15 08:59:26;;;;;;;25.07;16.40;;;3.70;99.90;;;;;;5092808;28;20161;-77
2022/01/15 09:01:59;;;;;;;23.80;15.37;;;3.80;99.90;;;;;;5093168;28;20172;-77
2022/01/15 09:04:27;;;;;;;29.43;18.50;;;3.90;99.90;;;;;;5092430;28;20192;-77
2022/01/15 09:06:54;;;;;;;28.00;17.30;;;3.90;99.90;;;;;;5093603;28;20191;-78
2022/01/15 09:09:20;;;;;;;73.30;36.97;;;3.80;99.90;;;;;;5093611;28;20177;-77
2022/01/15 09:11:45;;;;;;;77.37;34.93;;;3.90;99.90;;;;;;5097136;28;20673;-77
2022/01/15 09:14:59;;;;;;;77.70;33.40;;;4.10;99.90;;;;;;5096166;28;20268;-77
2022/01/15 09:17:28;;;;;;;21.93;14.53;;;4.10;99.90;;;;;;5095685;28;20221;-77
2022/01/15 09:19:54;;;;;;;24.63;16.10;;;4.10;99.90;;;;;;5095634;28;20214;-77
2022/01/15 09:22:31;;;;;;;25.50;15.90;;;4.30;99.90;;;;;;5096579;28;20173;-77
2022/01/15 09:25:15;;;;;;;18.80;13.23;;;4.40;99.90;;;;;;5095628;28;20165;-76
2022/01/15 09:30:33;;;;;;;17.77;12.53;;;4.40;99.90;;;;;;5096993;28;20266;-76
2022/01/15 09:36:20;;;;;;;15.77;10.63;;;4.50;99.90;;;;;;5096650;28;20160;-76
2022/01/15 09:38:46;;;;;;;15.43;11.87;;;4.70;99.90;;;;;;5095450;28;20177;-78
2022/01/15 09:41:13;;;;;;;17.33;12.03;;;4.60;99.90;;;;;;5095594;28;20193;-77
2022/01/15 09:44:10;;;;;;;17.60;12.53;;;4.60;99.90;;;;;;5095241;28;20177;-77
2022/01/15 09:46:37;;;;;;;24.97;15.90;;;4.70;99.90;;;;;;5095225;28;20168;-77
2022/01/15 09:49:02;;;;;;;28.90;17.93;;;4.70;99.90;;;;;;5095477;28;20242;-77
2022/01/15 09:51:30;;;;;;;19.70;13.83;;;4.70;99.90;;;;;;5094946;28;20270;-77
2022/01/15 09:53:56;;;;;;;18.90;13.97;;;4.50;99.90;;;;;;5095899;28;20212;-77
2022/01/15 09:56:22;;;;;;;18.60;12.57;;;4.50;99.90;;;;;;5094956;28;20191;-77
2022/01/15 09:58:48;;;;;;;19.57;13.37;;;4.70;99.90;;;;;;5095409;28;20268;-77
2022/01/15 10:01:13;;;;;;;17.90;12.80;;;4.80;99.90;;;;;;5097418;28;20197;-77
2022/01/15 10:03:42;;;;;;;21.13;13.73;;;4.70;99.90;;;;;;5100019;28;20227;-76
2022/01/15 10:06:09;;;;;;;18.00;12.37;;;4.70;99.90;;;;;;5095678;28;20226;-76
2022/01/15 10:08:35;;;;;;;15.83;11.13;;;4.80;99.90;;;;;;5102961;28;20180;-76
2022/01/15 10:11:11;;;;;;;16.97;11.10;;;5.00;99.90;;;;;;5098948;28;20267;-76
2022/01/15 10:13:44;;;;;;;16.33;11.37;;;5.10;99.90;;;;;;5104756;28;20188;-76
2022/01/15 10:16:13;;;;;;;15.00;11.17;;;5.00;99.90;;;;;;5103727;28;20185;-76
2022/01/15 10:18:48;;;;;;;14.07;10.67;;;5.00;99.90;;;;;;5102601;28;20599;-76
2022/01/15 10:21:16;;;;;;;14.23;10.33;;;4.90;99.90;;;;;;5103658;28;20200;-76
2022/01/15 10:23:56;;;;;;;15.73;11.37;;;4.90;99.90;;;;;;5104334;28;20196;-76
2022/01/15 10:26:39;;;;;;;14.77;11.33;;;5.00;99.90;;;;;;5102552;28;20694;-77
2022/01/15 10:29:07;;;;;;;18.87;11.97;;;4.90;99.90;;;;;;5104536;28;20196;-77
2022/01/15 10:31:39;;;;;;;17.73;10.63;;;5.10;99.90;;;;;;5104386;28;20197;-77
2022/01/15 10:34:23;;;;;;;14.97;10.57;;;5.30;99.90;;;;;;5101911;28;20203;-77
2022/01/15 10:36:50;;;;;;;14.17;10.13;;;5.40;99.90;;;;;;5098640;28;20280;-77
2022/01/15 10:39:20;;;;;;;12.73;10.40;;;5.20;99.90;;;;;;5096922;28;20180;-76
2022/01/15 10:41:47;;;;;;;14.50;10.50;;;5.30;99.90;;;;;;5098240;28;20516;-76
2022/01/15 10:48:03;;;;;;;14.30;10.23;;;5.40;99.90;;;;;;5095400;28;20180;-77
2022/01/15 10:50:55;;;;;;;13.93;10.47;;;5.40;99.90;;;;;;5093979;28;20216;-77
2022/01/15 10:53:45;;;;;;;14.67;10.67;;;5.20;99.90;;;;;;5094026;28;20169;-76
2022/01/15 10:56:16;;;;;;;12.73;10.10;;;5.20;99.90;;;;;;5094091;28;20165;-76
2022/01/15 10:59:12;;;;;;;12.93;10.30;;;5.00;99.90;;;;;;5094699;28;20268;-76
2022/01/15 11:01:48;;;;;;;15.00;10.83;;;5.10;99.90;;;;;;5094789;28;20189;-76
2022/01/15 11:04:32;;;;;;;14.27;10.53;;;5.30;99.90;;;;;;5094113;28;20191;-76
2022/01/15 11:07:10;;;;;;;17.83;10.53;;;5.20;99.90;;;;;;5093719;28;20181;-76
2022/01/15 11:09:36;;;;;;;16.43;12.83;;;5.30;99.90;;;;;;5093631;28;20234;-76
2022/01/15 11:12:13;;;;;;;14.07;11.07;;;5.30;99.90;;;;;;5093556;28;20275;-76
2022/01/15 11:14:40;;;;;;;19.23;12.87;;;5.50;99.90;;;;;;5094412;28;20181;-76
2022/01/15 11:17:24;;;;;;;15.77;11.50;;;5.60;99.90;;;;;;5093416;28;20563;-76
2022/01/15 11:19:52;;;;;;;15.80;10.97;;;5.70;99.90;;;;;;5094500;28;20197;-77
2022/01/15 11:22:28;;;;;;;12.70;9.70;;;5.70;99.90;;;;;;5094123;28;20177;-77
2022/01/15 11:24:55;;;;;;;20.43;13.13;;;5.70;99.90;;;;;;5093353;28;20196;-78
2022/01/15 11:27:49;;;;;;;19.13;12.13;;;5.70;99.90;;;;;;5076668;28;20639;-77
2022/01/15 11:30:14;;;;;;;14.50;10.80;;;5.80;99.90;;;;;;5093921;28;20216;-77
2022/01/15 11:32:43;;;;;;;12.87;10.10;;;5.80;99.90;;;;;;5093626;28;20169;-78
2022/01/15 11:35:56;;;;;;;15.10;10.67;;;5.80;99.90;;;;;;5093186;28;20632;-77
2022/01/15 11:38:41;;;;;;;20.03;13.47;;;5.50;99.90;;;;;;5092990;28;20255;-77
2022/01/15 11:41:26;;;;;;;15.00;10.67;;;5.60;99.90;;;;;;5093031;28;20199;-77
2022/01/15 11:43:56;;;;;;;12.33;9.47;;;5.40;99.90;;;;;;5093145;28;20172;-77
2022/01/15 11:49:59;;;;;;;12.17;9.67;;;5.00;99.90;;;;;;5094047;28;20269;-77
2022/01/15 11:52:40;;;;;;;12.93;10.20;;;4.80;99.90;;;;;;5094067;28;20169;-77
2022/01/15 11:55:06;;;;;;;12.63;10.13;;;4.70;99.90;;;;;;5094094;28;20149;-76
2022/01/15 11:57:49;;;;;;;14.60;9.87;;;4.60;99.90;;;;;;5093832;28;20188;-76
2022/01/15 12:00:29;;;;;;;12.77;9.27;;;4.50;99.90;;;;;;5093773;28;20192;-76
2022/01/15 12:03:38;;;;;;;11.33;8.77;;;4.50;99.90;;;;;;5093175;28;20238;-76
2022/01/15 12:06:28;;;;;;;13.17;10.27;;;4.60;99.90;;;;;;5093296;28;20173;-77
2022/01/15 12:08:54;;;;;;;10.63;8.77;;;4.50;99.90;;;;;;5092464;28;20181;-77
2022/01/15 12:11:33;;;;;;;13.13;9.93;;;4.50;99.90;;;;;;5092535;28;20270;-77
2022/01/15 12:14:40;;;;;;;13.83;10.30;;;4.50;99.90;;;;;;5092527;28;20169;-76
2022/01/15 12:17:44;;;;;;;16.13;11.90;;;4.50;99.90;;;;;;5093195;28;20199;-76
2022/01/15 12:23:32;;;;;;;13.73;10.23;;;4.50;99.90;;;;;;5093571;28;20202;-76
2022/01/15 12:25:58;;;;;;;13.83;10.63;;;4.40;99.90;;;;;;5092426;28;20176;-78
2022/01/15 12:31:50;;;;;;;13.80;10.00;;;4.30;99.90;;;;;;5093509;28;20200;-76
2022/01/15 12:34:25;;;;;;;12.33;9.47;;;4.60;99.90;;;;;;5092312;28;20184;-77
2022/01/15 12:36:51;;;;;;;13.40;9.83;;;4.60;99.90;;;;;;5092676;28;20212;-81
2022/01/15 12:39:38;;;;;;;13.17;10.53;;;4.60;99.90;;;;;;5092503;28;20189;-77
2022/01/15 12:42:06;;;;;;;24.73;19.87;;;4.70;99.90;;;;;;5093781;28;20165;-77
2022/01/15 12:44:51;;;;;;;18.07;14.07;;;5.00;99.90;;;;;;5095778;28;20250;-76
2022/01/15 12:47:22;;;;;;;13.47;10.87;;;5.10;99.90;;;;;;5096377;28;20173;-76
2022/01/15 12:49:51;;;;;;;10.77;9.37;;;5.20;99.90;;;;;;5097482;28;20192;-76
2022/01/15 12:52:25;;;;;;;11.33;9.13;;;5.20;99.90;;;;;;5096097;28;20180;-76
2022/01/15 12:55:38;;;;;;;12.00;9.60;;;4.90;99.90;;;;;;5097533;28;20161;-76
2022/01/15 12:58:26;;;;;;;22.83;14.97;;;4.90;99.90;;;;;;5096195;28;20195;-77
2022/01/15 13:01:26;;;;;;;18.40;13.90;;;4.90;99.90;;;;;;5097527;28;20574;-80
2022/01/15 13:03:52;;;;;;;14.93;13.13;;;4.80;99.90;;;;;;5097024;28;20161;-76
2022/01/15 13:06:24;;;;;;;20.23;16.80;;;4.80;99.90;;;;;;5097209;28;20180;-77
2022/01/15 13:09:20;;;;;;;24.53;20.63;;;4.70;99.90;;;;;;5095859;28;20550;-77
2022/01/15 13:12:13;;;;;;;23.47;18.20;;;4.70;99.90;;;;;;5096762;28;20176;-76
2022/01/15 13:14:43;;;;;;;13.80;11.27;;;4.70;99.90;;;;;;5096711;28;20252;-76
2022/01/15 13:17:25;;;;;;;24.23;16.90;;;4.70;99.90;;;;;;5095744;28;20245;-76
2022/01/15 13:20:03;;;;;;;28.40;18.90;;;4.60;99.90;;;;;;5096918;28;20216;-77
2022/01/15 13:22:28;;;;;;;16.53;12.87;;;4.60;99.90;;;;;;5095759;28;20202;-77
2022/01/15 13:32:06;;;;;;;11.17;9.03;;;4.70;99.90;;;;;;5088122;28;20189;-77
2022/01/15 13:34:34;;;;;;;10.93;8.37;;;4.70;99.90;;;;;;5096389;28;20588;-77
2022/01/15 13:37:09;;;;;;;12.97;9.77;;;4.60;99.90;;;;;;5095622;28;20683;-76
2022/01/15 13:39:54;;;;;;;11.07;9.13;;;4.60;99.90;;;;;;5096574;28;20175;-76
2022/01/15 13:42:22;;;;;;;12.27;9.57;;;4.60;99.90;;;;;;5095407;28;20258;-76
2022/01/15 13:44:49;;;;;;;13.90;8.07;;;4.60;99.90;;;;;;5096403;28;20691;-76
2022/01/15 13:47:16;;;;;;;10.27;8.17;;;4.40;99.90;;;;;;5096402;28;20165;-76